sensor_id;sensor_type;location;lat;lon;timestamp;temperature;humidity
19359;DHT22;9815;52.334;20.890;2023-07-02T00:00:12;17.60;99.90
19359;DHT22;9815;52.334;20.890;2023-07-02T00:02:41;17.60;99.90
19359;DHT22;9815;52.334;20.890;2023-07-02T00:05:09;17.50;99.90
19359;DHT22;9815;52.334;20.890;2023-07-02T00:07:37;17.50;99.90
19359;DHT22;9815;52.334;20.890;2023-07-02T00:10:06;17.50;99.90
19359;DHT22;9815;52.334;20.890;2023-07-02T00:12:36;17.50;99.90
19359;DHT22;9815;52.334;20.890;2023-07-02T00:15:05;17.50;99.90
19359;DHT22;9815;52.334;20.890;2023-07-02T00:17:34;17.50;99.90
19359;DHT22;9815;52.334;20.890;2023-07-02T00:20:07;17.40;99.90
19359;DHT22;9815;52.334;20.890;2023-07-02T00:22:41;17.50;99.90
19359;DHT22;9815;52.334;20.890;2023-07-02T00:25:13;17.40;99.90
19359;DHT22;9815;52.334;20.890;2023-07-02T00:27:42;17.40;99.90
19359;DHT22;9815;52.334;20.890;2023-07-02T00:30:11;17.40;99.90
19359;DHT22;9815;52.334;20.890;2023-07-02T00:32:39;17.40;99.90
19359;DHT22;9815;52.334;20.890;2023-07-02T00:35:08;17.30;99.90
19359;DHT22;9815;52.334;20.890;2023-07-02T00:37:36;17.30;99.90
19359;DHT22;9815;52.334;20.890;2023-07-02T00:40:06;17.30;99.90
19359;DHT22;9815;52.334;20.890;2023-07-02T00:42:35;17.30;99.90
19359;DHT22;9815;52.334;20.890;2023-07-02T00:45:06;17.20;99.90
19359;DHT22;9815;52.334;20.890;2023-07-02T00:47:35;17.30;99.90
19359;DHT22;9815;52.334;20.890;2023-07-02T00:50:05;17.20;99.90
19359;DHT22;9815;52.334;20.890;2023-07-02T00:52:36;17.20;99.90
19359;DHT22;9815;52.334;20.890;2023-07-02T00:55:06;17.20;99.90
19359;DHT22;9815;52.334;20.890;2023-07-02T00:57:35;17.20;99.90
19359;DHT22;9815;52.334;20.890;2023-07-02T01:00:06;17.20;99.90
19359;DHT22;9815;52.334;20.890;2023-07-02T01:02:34;17.20;99.90
19359;DHT22;9815;52.334;20.890;2023-07-02T01:05:03;17.20;99.90
19359;DHT22;9815;52.334;20.890;2023-07-02T01:07:32;17.20;99.90
19359;DHT22;9815;52.334;20.890;2023-07-02T01:10:00;17.20;99.90
19359;DHT22;9815;52.334;20.890;2023-07-02T01:12:28;17.20;99.90
19359;DHT22;9815;52.334;20.890;2023-07-02T01:15:00;17.10;99.90
19359;DHT22;9815;52.334;20.890;2023-07-02T01:17:32;17.10;99.90
19359;DHT22;9815;52.334;20.890;2023-07-02T01:20:10;17.10;99.90
19359;DHT22;9815;52.334;20.890;2023-07-02T01:22:38;17.10;99.90
19359;DHT22;9815;52.334;20.890;2023-07-02T01:25:07;17.10;99.90
19359;DHT22;9815;52.334;20.890;2023-07-02T01:27:37;17.10;99.90
19359;DHT22;9815;52.334;20.890;2023-07-02T01:30:07;17.10;99.90
19359;DHT22;9815;52.334;20.890;2023-07-02T01:32:37;17.10;99.90
19359;DHT22;9815;52.334;20.890;2023-07-02T01:35:08;17.10;99.90
19359;DHT22;9815;52.334;20.890;2023-07-02T01:37:36;17.10;99.90
19359;DHT22;9815;52.334;20.890;2023-07-02T01:40:06;17.10;99.90
19359;DHT22;9815;52.334;20.890;2023-07-02T01:42:36;17.20;99.90
19359;DHT22;9815;52.334;20.890;2023-07-02T01:45:05;17.10;99.90
19359;DHT22;9815;52.334;20.890;2023-07-02T01:47:33;17.20;99.90
19359;DHT22;9815;52.334;20.890;2023-07-02T01:50:04;17.20;99.90
19359;DHT22;9815;52.334;20.890;2023-07-02T01:52:35;17.30;99.90
19359;DHT22;9815;52.334;20.890;2023-07-02T01:55:04;17.30;99.90
19359;DHT22;9815;52.334;20.890;2023-07-02T01:57:32;17.30;99.90
19359;DHT22;9815;52.334;20.890;2023-07-02T02:00:01;17.30;99.90
19359;DHT22;9815;52.334;20.890;2023-07-02T02:02:41;17.40;99.90
19359;DHT22;9815;52.334;20.890;2023-07-02T02:05:10;17.40;99.90
19359;DHT22;9815;52.334;20.890;2023-07-02T02:07:40;17.40;99.90
19359;DHT22;9815;52.334;20.890;2023-07-02T02:10:09;17.50;99.90
19359;DHT22;9815;52.334;20.890;2023-07-02T02:12:37;17.50;99.90
19359;DHT22;9815;52.334;20.890;2023-07-02T02:15:07;17.50;99.90
19359;DHT22;9815;52.334;20.890;2023-07-02T02:17:35;17.50;99.90
19359;DHT22;9815;52.334;20.890;2023-07-02T02:20:05;17.50;99.90
19359;DHT22;9815;52.334;20.890;2023-07-02T02:22:35;17.50;99.90
19359;DHT22;9815;52.334;20.890;2023-07-02T02:25:06;17.50;99.90
19359;DHT22;9815;52.334;20.890;2023-07-02T02:27:34;17.50;99.90
19359;DHT22;9815;52.334;20.890;2023-07-02T02:30:04;17.50;99.90
19359;DHT22;9815;52.334;20.890;2023-07-02T02:32:34;17.50;99.90
19359;DHT22;9815;52.334;20.890;2023-07-02T02:35:07;17.60;99.90
19359;DHT22;9815;52.334;20.890;2023-07-02T02:37:37;17.60;99.90
19359;DHT22;9815;52.334;20.890;2023-07-02T02:40:09;17.60;99.90
19359;DHT22;9815;52.334;20.890;2023-07-02T02:42:39;17.60;99.90
19359;DHT22;9815;52.334;20.890;2023-07-02T02:45:08;17.60;99.90
19359;DHT22;9815;52.334;20.890;2023-07-02T02:47:37;17.60;99.90
19359;DHT22;9815;52.334;20.890;2023-07-02T02:50:06;17.60;99.90
19359;DHT22;9815;52.334;20.890;2023-07-02T02:52:36;17.60;99.90
19359;DHT22;9815;52.334;20.890;2023-07-02T02:55:06;17.60;99.90
19359;DHT22;9815;52.334;20.890;2023-07-02T02:57:36;17.60;99.90
19359;DHT22;9815;52.334;20.890;2023-07-02T03:00:05;17.60;99.90
19359;DHT22;9815;52.334;20.890;2023-07-02T03:02:34;17.60;99.90
19359;DHT22;9815;52.334;20.890;2023-07-02T03:05:03;17.60;99.90
19359;DHT22;9815;52.334;20.890;2023-07-02T03:07:32;17.70;99.90
19359;DHT22;9815;52.334;20.890;2023-07-02T03:10:00;17.70;99.90
19359;DHT22;9815;52.334;20.890;2023-07-02T03:12:29;17.70;99.90
19359;DHT22;9815;52.334;20.890;2023-07-02T03:14:59;17.70;99.90
19359;DHT22;9815;52.334;20.890;2023-07-02T03:17:27;17.80;99.90
19359;DHT22;9815;52.334;20.890;2023-07-02T03:19:56;17.80;99.90
19359;DHT22;9815;52.334;20.890;2023-07-02T03:22:24;17.80;99.90
19359;DHT22;9815;52.334;20.890;2023-07-02T03:24:52;17.80;99.90
19359;DHT22;9815;52.334;20.890;2023-07-02T03:27:20;17.80;99.90
19359;DHT22;9815;52.334;20.890;2023-07-02T03:29:49;17.90;99.90
19359;DHT22;9815;52.334;20.890;2023-07-02T03:32:19;17.90;99.90
19359;DHT22;9815;52.334;20.890;2023-07-02T03:34:47;17.90;99.90
19359;DHT22;9815;52.334;20.890;2023-07-02T03:37:15;17.90;99.90
19359;DHT22;9815;52.334;20.890;2023-07-02T03:39:45;18.00;99.90
19359;DHT22;9815;52.334;20.890;2023-07-02T03:42:13;18.00;99.90
19359;DHT22;9815;52.334;20.890;2023-07-02T03:44:41;18.00;99.90
19359;DHT22;9815;52.334;20.890;2023-07-02T03:47:09;18.10;99.90
19359;DHT22;9815;52.334;20.890;2023-07-02T03:49:40;18.10;99.90
19359;DHT22;9815;52.334;20.890;2023-07-02T03:52:08;18.10;99.90
19359;DHT22;9815;52.334;20.890;2023-07-02T03:54:39;18.10;99.90
19359;DHT22;9815;52.334;20.890;2023-07-02T03:57:07;18.10;99.90
19359;DHT22;9815;52.334;20.890;2023-07-02T03:59:36;18.10;99.90
19359;DHT22;9815;52.334;20.890;2023-07-02T04:02:05;18.20;99.90
19359;DHT22;9815;52.334;20.890;2023-07-02T04:04:33;18.20;99.90
19359;DHT22;9815;52.334;20.890;2023-07-02T04:07:04;18.30;99.90
19359;DHT22;9815;52.334;20.890;2023-07-02T04:09:32;18.30;99.90
19359;DHT22;9815;52.334;20.890;2023-07-02T04:12:00;18.30;99.90
19359;DHT22;9815;52.334;20.890;2023-07-02T04:14:29;18.30;99.90
19359;DHT22;9815;52.334;20.890;2023-07-02T04:16:57;18.40;99.90
19359;DHT22;9815;52.334;20.890;2023-07-02T04:19:25;18.40;99.90
19359;DHT22;9815;52.334;20.890;2023-07-02T04:21:53;18.40;99.90
19359;DHT22;9815;52.334;20.890;2023-07-02T04:24:23;18.40;99.90
19359;DHT22;9815;52.334;20.890;2023-07-02T04:26:53;18.40;99.90
19359;DHT22;9815;52.334;20.890;2023-07-02T04:29:41;18.50;99.90
19359;DHT22;9815;52.334;20.890;2023-07-02T04:32:09;18.50;99.90
19359;DHT22;9815;52.334;20.890;2023-07-02T04:34:38;18.50;99.90
19359;DHT22;9815;52.334;20.890;2023-07-02T04:37:06;18.50;99.90
19359;DHT22;9815;52.334;20.890;2023-07-02T04:39:36;18.50;99.90
19359;DHT22;9815;52.334;20.890;2023-07-02T04:42:05;18.60;99.90
19359;DHT22;9815;52.334;20.890;2023-07-02T04:44:33;18.60;99.90
19359;DHT22;9815;52.334;20.890;2023-07-02T04:47:02;18.70;99.90
19359;DHT22;9815;52.334;20.890;2023-07-02T04:49:30;18.70;99.90
19359;DHT22;9815;52.334;20.890;2023-07-02T04:51:58;18.80;99.90
19359;DHT22;9815;52.334;20.890;2023-07-02T04:54:27;18.80;99.90
19359;DHT22;9815;52.334;20.890;2023-07-02T04:56:56;18.80;99.90
19359;DHT22;9815;52.334;20.890;2023-07-02T04:59:25;18.80;99.90
19359;DHT22;9815;52.334;20.890;2023-07-02T05:01:54;18.90;99.90
19359;DHT22;9815;52.334;20.890;2023-07-02T05:04:22;18.90;99.90
19359;DHT22;9815;52.334;20.890;2023-07-02T05:06:50;18.90;99.90
19359;DHT22;9815;52.334;20.890;2023-07-02T05:09:19;18.90;99.90
19359;DHT22;9815;52.334;20.890;2023-07-02T05:11:48;18.90;99.90
19359;DHT22;9815;52.334;20.890;2023-07-02T05:14:17;19.00;99.90
19359;DHT22;9815;52.334;20.890;2023-07-02T05:16:46;19.00;99.90
19359;DHT22;9815;52.334;20.890;2023-07-02T05:19:14;19.10;99.90
19359;DHT22;9815;52.334;20.890;2023-07-02T05:21:42;19.20;99.90
19359;DHT22;9815;52.334;20.890;2023-07-02T05:24:11;19.20;99.90
19359;DHT22;9815;52.334;20.890;2023-07-02T05:26:39;19.30;99.90
19359;DHT22;9815;52.334;20.890;2023-07-02T05:29:07;19.40;99.90
19359;DHT22;9815;52.334;20.890;2023-07-02T05:31:37;19.50;99.90
19359;DHT22;9815;52.334;20.890;2023-07-02T05:34:06;19.50;99.90
19359;DHT22;9815;52.334;20.890;2023-07-02T05:36:34;19.60;99.90
19359;DHT22;9815;52.334;20.890;2023-07-02T05:39:02;19.60;99.90
19359;DHT22;9815;52.334;20.890;2023-07-02T05:41:31;19.70;99.90
19359;DHT22;9815;52.334;20.890;2023-07-02T05:43:59;19.60;99.90
19359;DHT22;9815;52.334;20.890;2023-07-02T05:46:27;19.60;99.90
19359;DHT22;9815;52.334;20.890;2023-07-02T05:48:57;19.70;99.90
19359;DHT22;9815;52.334;20.890;2023-07-02T05:51:26;19.70;99.90
19359;DHT22;9815;52.334;20.890;2023-07-02T05:53:55;19.70;99.90
19359;DHT22;9815;52.334;20.890;2023-07-02T05:56:23;19.70;99.90
19359;DHT22;9815;52.334;20.890;2023-07-02T05:58:51;19.80;99.90
19359;DHT22;9815;52.334;20.890;2023-07-02T06:01:20;19.90;99.90
19359;DHT22;9815;52.334;20.890;2023-07-02T06:03:51;20.10;99.90
19359;DHT22;9815;52.334;20.890;2023-07-02T06:06:21;20.20;99.90
19359;DHT22;9815;52.334;20.890;2023-07-02T06:08:50;20.20;99.90
19359;DHT22;9815;52.334;20.890;2023-07-02T06:11:18;20.30;99.90
19359;DHT22;9815;52.334;20.890;2023-07-02T06:13:46;20.20;99.90
19359;DHT22;9815;52.334;20.890;2023-07-02T06:16:15;20.20;99.90
19359;DHT22;9815;52.334;20.890;2023-07-02T06:18:43;20.20;99.90
19359;DHT22;9815;52.334;20.890;2023-07-02T06:21:11;20.10;99.90
19359;DHT22;9815;52.334;20.890;2023-07-02T06:23:42;20.00;99.90
19359;DHT22;9815;52.334;20.890;2023-07-02T06:26:11;20.10;99.90
19359;DHT22;9815;52.334;20.890;2023-07-02T06:28:39;20.00;99.90
19359;DHT22;9815;52.334;20.890;2023-07-02T06:31:07;20.10;99.90
19359;DHT22;9815;52.334;20.890;2023-07-02T06:33:39;20.20;99.90
19359;DHT22;9815;52.334;20.890;2023-07-02T06:36:07;20.30;99.90
19359;DHT22;9815;52.334;20.890;2023-07-02T06:38:38;20.50;99.90
19359;DHT22;9815;52.334;20.890;2023-07-02T06:41:08;20.80;99.90
19359;DHT22;9815;52.334;20.890;2023-07-02T06:43:37;21.00;99.90
19359;DHT22;9815;52.334;20.890;2023-07-02T06:46:05;21.10;99.90
19359;DHT22;9815;52.334;20.890;2023-07-02T06:48:33;21.10;99.90
19359;DHT22;9815;52.334;20.890;2023-07-02T06:51:01;21.10;99.90
19359;DHT22;9815;52.334;20.890;2023-07-02T06:53:30;21.10;99.90
19359;DHT22;9815;52.334;20.890;2023-07-02T06:55:58;21.00;99.90
19359;DHT22;9815;52.334;20.890;2023-07-02T06:58:28;21.00;99.90
19359;DHT22;9815;52.334;20.890;2023-07-02T07:00:56;21.10;99.90
19359;DHT22;9815;52.334;20.890;2023-07-02T07:03:24;21.10;99.90
19359;DHT22;9815;52.334;20.890;2023-07-02T07:05:53;21.20;99.90
19359;DHT22;9815;52.334;20.890;2023-07-02T07:08:22;21.10;99.90
19359;DHT22;9815;52.334;20.890;2023-07-02T07:10:50;21.20;99.90
19359;DHT22;9815;52.334;20.890;2023-07-02T07:13:18;21.20;99.90
19359;DHT22;9815;52.334;20.890;2023-07-02T07:15:48;21.10;99.90
19359;DHT22;9815;52.334;20.890;2023-07-02T07:18:16;21.00;99.90
19359;DHT22;9815;52.334;20.890;2023-07-02T07:20:46;20.70;99.90
19359;DHT22;9815;52.334;20.890;2023-07-02T07:23:15;20.40;99.90
19359;DHT22;9815;52.334;20.890;2023-07-02T07:25:44;20.10;99.90
19359;DHT22;9815;52.334;20.890;2023-07-02T07:28:13;19.80;99.90
19359;DHT22;9815;52.334;20.890;2023-07-02T07:30:42;19.60;99.90
19359;DHT22;9815;52.334;20.890;2023-07-02T07:33:12;19.50;99.90
19359;DHT22;9815;52.334;20.890;2023-07-02T07:35:41;19.40;99.90
19359;DHT22;9815;52.334;20.890;2023-07-02T07:38:09;19.50;99.90
19359;DHT22;9815;52.334;20.890;2023-07-02T07:40:37;19.50;99.90
19359;DHT22;9815;52.334;20.890;2023-07-02T07:43:06;19.70;99.90
19359;DHT22;9815;52.334;20.890;2023-07-02T07:45:34;19.60;99.90
19359;DHT22;9815;52.334;20.890;2023-07-02T07:48:03;19.80;99.90
19359;DHT22;9815;52.334;20.890;2023-07-02T07:50:33;19.80;99.90
19359;DHT22;9815;52.334;20.890;2023-07-02T07:53:01;19.90;99.90
19359;DHT22;9815;52.334;20.890;2023-07-02T07:55:29;19.70;99.90
19359;DHT22;9815;52.334;20.890;2023-07-02T07:57:58;19.50;99.90
19359;DHT22;9815;52.334;20.890;2023-07-02T08:00:29;19.40;99.90
19359;DHT22;9815;52.334;20.890;2023-07-02T08:02:58;19.40;99.90
19359;DHT22;9815;52.334;20.890;2023-07-02T08:05:28;19.40;99.90
19359;DHT22;9815;52.334;20.890;2023-07-02T08:07:57;19.40;99.90
19359;DHT22;9815;52.334;20.890;2023-07-02T08:10:26;19.40;99.90
19359;DHT22;9815;52.334;20.890;2023-07-02T08:12:54;19.50;99.90
19359;DHT22;9815;52.334;20.890;2023-07-02T08:15:23;19.70;99.90
19359;DHT22;9815;52.334;20.890;2023-07-02T08:17:51;19.90;99.90
19359;DHT22;9815;52.334;20.890;2023-07-02T08:20:21;20.30;99.90
19359;DHT22;9815;52.334;20.890;2023-07-02T08:22:51;20.70;99.90
19359;DHT22;9815;52.334;20.890;2023-07-02T08:25:21;20.70;99.90
19359;DHT22;9815;52.334;20.890;2023-07-02T08:27:49;20.60;99.90
19359;DHT22;9815;52.334;20.890;2023-07-02T08:30:18;20.40;99.90
19359;DHT22;9815;52.334;20.890;2023-07-02T08:32:46;20.30;99.90
19359;DHT22;9815;52.334;20.890;2023-07-02T08:35:15;20.20;99.90
19359;DHT22;9815;52.334;20.890;2023-07-02T08:37:43;20.00;99.90
19359;DHT22;9815;52.334;20.890;2023-07-02T08:40:17;19.80;99.90
19359;DHT22;9815;52.334;20.890;2023-07-02T08:42:48;19.70;99.90
19359;DHT22;9815;52.334;20.890;2023-07-02T08:45:17;19.80;99.90
19359;DHT22;9815;52.334;20.890;2023-07-02T08:47:45;20.10;99.90
19359;DHT22;9815;52.334;20.890;2023-07-02T08:50:14;20.50;99.90
19359;DHT22;9815;52.334;20.890;2023-07-02T08:52:42;20.90;99.90
19359;DHT22;9815;52.334;20.890;2023-07-02T08:55:12;21.20;99.90
19359;DHT22;9815;52.334;20.890;2023-07-02T08:57:40;21.50;99.90
19359;DHT22;9815;52.334;20.890;2023-07-02T09:00:18;21.70;99.90
19359;DHT22;9815;52.334;20.890;2023-07-02T09:02:46;21.60;99.90
19359;DHT22;9815;52.334;20.890;2023-07-02T09:05:15;21.40;99.90
19359;DHT22;9815;52.334;20.890;2023-07-02T09:07:44;21.30;99.90
19359;DHT22;9815;52.334;20.890;2023-07-02T09:10:26;21.20;99.90
19359;DHT22;9815;52.334;20.890;2023-07-02T09:13:05;21.10;99.90
19359;DHT22;9815;52.334;20.890;2023-07-02T09:15:38;20.90;99.90
19359;DHT22;9815;52.334;20.890;2023-07-02T09:18:17;20.60;99.90
19359;DHT22;9815;52.334;20.890;2023-07-02T09:20:45;20.50;99.90
19359;DHT22;9815;52.334;20.890;2023-07-02T09:23:14;20.60;99.90
19359;DHT22;9815;52.334;20.890;2023-07-02T09:25:43;20.90;99.90
19359;DHT22;9815;52.334;20.890;2023-07-02T09:28:16;21.40;99.90
19359;DHT22;9815;52.334;20.890;2023-07-02T09:30:54;22.10;99.90
19359;DHT22;9815;52.334;20.890;2023-07-02T09:33:23;22.60;99.90
19359;DHT22;9815;52.334;20.890;2023-07-02T09:35:53;22.90;99.90
19359;DHT22;9815;52.334;20.890;2023-07-02T09:38:21;23.10;99.90
19359;DHT22;9815;52.334;20.890;2023-07-02T09:40:52;23.20;99.90
19359;DHT22;9815;52.334;20.890;2023-07-02T09:43:21;22.80;99.90
19359;DHT22;9815;52.334;20.890;2023-07-02T09:45:54;22.90;99.90
19359;DHT22;9815;52.334;20.890;2023-07-02T09:48:24;22.70;99.90
19359;DHT22;9815;52.334;20.890;2023-07-02T09:50:54;22.50;99.90
19359;DHT22;9815;52.334;20.890;2023-07-02T09:53:22;22.50;99.90
19359;DHT22;9815;52.334;20.890;2023-07-02T09:55:50;22.20;99.90
19359;DHT22;9815;52.334;20.890;2023-07-02T09:58:19;22.00;99.90
19359;DHT22;9815;52.334;20.890;2023-07-02T10:00:47;22.00;99.90
19359;DHT22;9815;52.334;20.890;2023-07-02T10:03:28;22.20;99.90
19359;DHT22;9815;52.334;20.890;2023-07-02T10:06:04;22.50;99.90
19359;DHT22;9815;52.334;20.890;2023-07-02T10:08:33;23.10;99.90
19359;DHT22;9815;52.334;20.890;2023-07-02T10:11:11;23.60;99.90
19359;DHT22;9815;52.334;20.890;2023-07-02T10:13:40;24.30;90.00
19359;DHT22;9815;52.334;20.890;2023-07-02T10:16:08;24.10;81.20
19359;DHT22;9815;52.334;20.890;2023-07-02T10:18:38;24.10;91.10
19359;DHT22;9815;52.334;20.890;2023-07-02T10:21:14;24.30;82.90
19359;DHT22;9815;52.334;20.890;2023-07-02T10:23:43;24.20;72.00
19359;DHT22;9815;52.334;20.890;2023-07-02T10:26:13;23.80;75.40
19359;DHT22;9815;52.334;20.890;2023-07-02T10:28:42;23.40;86.30
19359;DHT22;9815;52.334;20.890;2023-07-02T10:31:20;23.00;85.50
19359;DHT22;9815;52.334;20.890;2023-07-02T10:33:50;22.50;81.50
19359;DHT22;9815;52.334;20.890;2023-07-02T10:36:19;22.20;85.60
19359;DHT22;9815;52.334;20.890;2023-07-02T10:38:49;22.00;91.10
19359;DHT22;9815;52.334;20.890;2023-07-02T10:41:24;21.90;94.50
19359;DHT22;9815;52.334;20.890;2023-07-02T10:43:53;21.70;98.80
19359;DHT22;9815;52.334;20.890;2023-07-02T10:46:22;21.60;99.90
19359;DHT22;9815;52.334;20.890;2023-07-02T10:48:55;21.50;99.90
19359;DHT22;9815;52.334;20.890;2023-07-02T10:51:23;21.30;99.90
19359;DHT22;9815;52.334;20.890;2023-07-02T10:53:58;21.10;99.90
19359;DHT22;9815;52.334;20.890;2023-07-02T10:56:27;20.80;99.90
19359;DHT22;9815;52.334;20.890;2023-07-02T10:58:56;20.50;99.90
19359;DHT22;9815;52.334;20.890;2023-07-02T11:01:26;20.30;99.90
19359;DHT22;9815;52.334;20.890;2023-07-02T11:04:01;20.10;99.90
19359;DHT22;9815;52.334;20.890;2023-07-02T11:06:30;19.90;99.90
19359;DHT22;9815;52.334;20.890;2023-07-02T11:09:00;19.70;99.90
19359;DHT22;9815;52.334;20.890;2023-07-02T11:11:30;19.60;99.90
19359;DHT22;9815;52.334;20.890;2023-07-02T11:13:59;19.90;99.90
19359;DHT22;9815;52.334;20.890;2023-07-02T11:16:28;20.30;99.90
19359;DHT22;9815;52.334;20.890;2023-07-02T11:19:08;20.60;99.90
19359;DHT22;9815;52.334;20.890;2023-07-02T11:21:37;21.30;99.90
19359;DHT22;9815;52.334;20.890;2023-07-02T11:24:06;21.60;99.90
19359;DHT22;9815;52.334;20.890;2023-07-02T11:26:35;21.80;99.90
19359;DHT22;9815;52.334;20.890;2023-07-02T11:29:06;21.60;99.90
19359;DHT22;9815;52.334;20.890;2023-07-02T11:31:37;21.50;99.90
19359;DHT22;9815;52.334;20.890;2023-07-02T11:34:13;21.40;99.90
19359;DHT22;9815;52.334;20.890;2023-07-02T11:36:45;21.10;99.90
19359;DHT22;9815;52.334;20.890;2023-07-02T11:39:13;21.00;99.90
19359;DHT22;9815;52.334;20.890;2023-07-02T11:41:43;21.10;99.90
19359;DHT22;9815;52.334;20.890;2023-07-02T11:44:11;21.30;99.90
19359;DHT22;9815;52.334;20.890;2023-07-02T11:46:40;21.40;99.90
19359;DHT22;9815;52.334;20.890;2023-07-02T11:49:08;21.70;99.90
19359;DHT22;9815;52.334;20.890;2023-07-02T11:51:38;21.80;99.90
19359;DHT22;9815;52.334;20.890;2023-07-02T11:54:07;21.80;99.90
19359;DHT22;9815;52.334;20.890;2023-07-02T11:56:35;21.80;99.90
19359;DHT22;9815;52.334;20.890;2023-07-02T11:59:05;21.80;99.90
19359;DHT22;9815;52.334;20.890;2023-07-02T12:01:33;21.90;99.90
19359;DHT22;9815;52.334;20.890;2023-07-02T12:04:02;22.10;99.90
19359;DHT22;9815;52.334;20.890;2023-07-02T12:06:32;22.10;99.90
19359;DHT22;9815;52.334;20.890;2023-07-02T12:09:02;22.20;99.90
19359;DHT22;9815;52.334;20.890;2023-07-02T12:11:30;22.10;99.90
19359;DHT22;9815;52.334;20.890;2023-07-02T12:13:58;22.30;99.90
19359;DHT22;9815;52.334;20.890;2023-07-02T12:16:27;22.80;99.90
19359;DHT22;9815;52.334;20.890;2023-07-02T12:18:55;23.90;99.90
19359;DHT22;9815;52.334;20.890;2023-07-02T12:21:24;24.10;72.30
19359;DHT22;9815;52.334;20.890;2023-07-02T12:23:52;24.20;82.80
19359;DHT22;9815;52.334;20.890;2023-07-02T12:26:22;24.20;65.80
19359;DHT22;9815;52.334;20.890;2023-07-02T12:28:50;24.10;66.30
19359;DHT22;9815;52.334;20.890;2023-07-02T12:31:18;24.10;65.60
19359;DHT22;9815;52.334;20.890;2023-07-02T12:33:47;23.70;65.70
19359;DHT22;9815;52.334;20.890;2023-07-02T12:36:15;23.40;75.00
19359;DHT22;9815;52.334;20.890;2023-07-02T12:38:43;23.10;81.20
19359;DHT22;9815;52.334;20.890;2023-07-02T12:41:12;22.80;82.50
19359;DHT22;9815;52.334;20.890;2023-07-02T12:43:41;22.70;90.90
19359;DHT22;9815;52.334;20.890;2023-07-02T12:46:10;22.70;78.10
19359;DHT22;9815;52.334;20.890;2023-07-02T12:48:38;22.80;78.10
19359;DHT22;9815;52.334;20.890;2023-07-02T12:51:06;23.00;78.40
19359;DHT22;9815;52.334;20.890;2023-07-02T12:53:35;23.50;51.50
19359;DHT22;9815;52.334;20.890;2023-07-02T12:56:03;24.10;41.50
19359;DHT22;9815;52.334;20.890;2023-07-02T12:58:32;24.70;35.70
19359;DHT22;9815;52.334;20.890;2023-07-02T13:01:01;25.00;27.60
19359;DHT22;9815;52.334;20.890;2023-07-02T13:03:30;24.60;26.20
19359;DHT22;9815;52.334;20.890;2023-07-02T13:05:59;24.20;26.70
19359;DHT22;9815;52.334;20.890;2023-07-02T13:08:27;24.10;26.80
19359;DHT22;9815;52.334;20.890;2023-07-02T13:10:55;24.00;26.80
19359;DHT22;9815;52.334;20.890;2023-07-02T13:13:24;23.90;25.90
19359;DHT22;9815;52.334;20.890;2023-07-02T13:15:55;23.90;25.40
19359;DHT22;9815;52.334;20.890;2023-07-02T13:18:26;23.80;25.60
19359;DHT22;9815;52.334;20.890;2023-07-02T13:20:54;23.70;25.80
19359;DHT22;9815;52.334;20.890;2023-07-02T13:23:23;23.50;25.60
19359;DHT22;9815;52.334;20.890;2023-07-02T13:25:51;23.40;26.00
19359;DHT22;9815;52.334;20.890;2023-07-02T13:28:21;23.40;26.20
19359;DHT22;9815;52.334;20.890;2023-07-02T13:30:50;23.40;25.40
19359;DHT22;9815;52.334;20.890;2023-07-02T13:33:18;23.50;25.80
19359;DHT22;9815;52.334;20.890;2023-07-02T13:35:48;23.60;25.20
19359;DHT22;9815;52.334;20.890;2023-07-02T13:38:17;23.90;25.90
19359;DHT22;9815;52.334;20.890;2023-07-02T13:40:45;24.00;24.40
19359;DHT22;9815;52.334;20.890;2023-07-02T13:43:14;23.90;23.20
19359;DHT22;9815;52.334;20.890;2023-07-02T13:45:42;23.90;23.70
19359;DHT22;9815;52.334;20.890;2023-07-02T13:48:11;24.30;24.50
19359;DHT22;9815;52.334;20.890;2023-07-02T13:50:39;24.60;20.30
19359;DHT22;9815;52.334;20.890;2023-07-02T13:53:09;25.00;19.30
19359;DHT22;9815;52.334;20.890;2023-07-02T13:55:37;25.30;19.10
19359;DHT22;9815;52.334;20.890;2023-07-02T13:58:06;25.40;18.80
19359;DHT22;9815;52.334;20.890;2023-07-02T14:00:36;25.30;18.90
19359;DHT22;9815;52.334;20.890;2023-07-02T14:03:05;25.70;18.20
19359;DHT22;9815;52.334;20.890;2023-07-02T14:05:34;25.70;18.40
19359;DHT22;9815;52.334;20.890;2023-07-02T14:08:02;26.10;18.30
19359;DHT22;9815;52.334;20.890;2023-07-02T14:10:30;26.30;17.80
19359;DHT22;9815;52.334;20.890;2023-07-02T14:12:59;26.60;17.40
19359;DHT22;9815;52.334;20.890;2023-07-02T14:15:27;26.70;17.40
19359;DHT22;9815;52.334;20.890;2023-07-02T14:17:57;26.20;17.30
19359;DHT22;9815;52.334;20.890;2023-07-02T14:20:25;26.10;17.40
19359;DHT22;9815;52.334;20.890;2023-07-02T14:22:54;26.40;18.30
19359;DHT22;9815;52.334;20.890;2023-07-02T14:25:22;26.70;17.10
19359;DHT22;9815;52.334;20.890;2023-07-02T14:28:07;26.80;16.80
19359;DHT22;9815;52.334;20.890;2023-07-02T14:30:36;25.90;17.20
19359;DHT22;9815;52.334;20.890;2023-07-02T14:33:07;25.40;17.90
19359;DHT22;9815;52.334;20.890;2023-07-02T14:35:36;25.10;19.30
19359;DHT22;9815;52.334;20.890;2023-07-02T14:38:05;24.80;20.00
19359;DHT22;9815;52.334;20.890;2023-07-02T14:40:33;24.40;18.70
19359;DHT22;9815;52.334;20.890;2023-07-02T14:43:01;24.10;20.00
19359;DHT22;9815;52.334;20.890;2023-07-02T14:45:32;24.00;20.80
19359;DHT22;9815;52.334;20.890;2023-07-02T14:48:00;23.70;19.80
19359;DHT22;9815;52.334;20.890;2023-07-02T14:50:30;23.70;20.10
19359;DHT22;9815;52.334;20.890;2023-07-02T14:52:59;23.70;19.70
19359;DHT22;9815;52.334;20.890;2023-07-02T14:55:28;23.90;20.30
19359;DHT22;9815;52.334;20.890;2023-07-02T14:57:56;24.00;20.50
19359;DHT22;9815;52.334;20.890;2023-07-02T15:00:24;24.10;19.60
19359;DHT22;9815;52.334;20.890;2023-07-02T15:02:52;24.00;19.70
19359;DHT22;9815;52.334;20.890;2023-07-02T15:05:21;24.10;21.20
19359;DHT22;9815;52.334;20.890;2023-07-02T15:07:51;24.10;19.90
19359;DHT22;9815;52.334;20.890;2023-07-02T15:10:19;24.20;20.20
19359;DHT22;9815;52.334;20.890;2023-07-02T15:12:48;24.60;20.10
19359;DHT22;9815;52.334;20.890;2023-07-02T15:15:16;25.10;19.40
19359;DHT22;9815;52.334;20.890;2023-07-02T15:17:45;25.50;18.10
19359;DHT22;9815;52.334;20.890;2023-07-02T15:20:13;25.30;18.10
19359;DHT22;9815;52.334;20.890;2023-07-02T15:22:42;25.00;18.50
19359;DHT22;9815;52.334;20.890;2023-07-02T15:25:11;24.70;20.00
19359;DHT22;9815;52.334;20.890;2023-07-02T15:27:40;24.30;19.70
19359;DHT22;9815;52.334;20.890;2023-07-02T15:30:09;24.20;19.70
19359;DHT22;9815;52.334;20.890;2023-07-02T15:32:37;24.30;20.00
19359;DHT22;9815;52.334;20.890;2023-07-02T15:35:06;24.60;19.70
19359;DHT22;9815;52.334;20.890;2023-07-02T15:37:34;25.10;19.20
19359;DHT22;9815;52.334;20.890;2023-07-02T15:40:04;25.20;18.10
19359;DHT22;9815;52.334;20.890;2023-07-02T15:42:33;25.50;18.80